Time;durP1;ratioP1;P1;durP2;ratioP2;P2;SDS_P1;SDS_P2;PMS_P1;PMS_P2;Temp;Humidity;BMP_temperature;BMP_pressure;BME280_temperature;BME280_humidity;BME280_pressure;Samples;Min_cycle;Max_cycle;Signal;HPM_P1;HPM_P2
2022/01/27 00:02:31;;;;;;;;;;;;;;;1.40;69.60;100112.28;5085634;28;20304;-67
2022/01/27 00:05:14;;;;;;;25.27;15.10;;;;;;;1.43;69.62;100121.84;5085115;28;19944;-67
2022/01/27 00:08:01;;;;;;;27.92;16.27;;;;;;;1.43;69.53;100140.13;5084193;28;20375;-65
2022/01/27 00:10:48;;;;;;;25.02;17.13;;;;;;;0.64;69.45;100080.44;5085219;28;20103;-65
2022/01/27 00:13:28;;;;;;;27.88;16.92;;;;;;;0.57;69.42;99946.56;5084537;28;20037;-67
2022/01/27 00:16:14;;;;;;;24.02;15.57;;;;;;;1.48;69.29;100079.13;5085514;28;20036;-67
2022/01/27 00:18:49;;;;;;;25.00;15.73;;;;;;;0.03;69.12;99879.91;5054299;28;20116;-69
2022/01/27 00:21:24;;;;;;;24.98;16.70;;;;;;;-0.20;69.12;99792.31;5088292;28;20053;-68
2022/01/27 00:23:58;;;;;;;26.83;16.77;;;;;;;0.75;69.33;99961.25;5088384;28;20068;-67
2022/01/27 00:26:31;;;;;;;32.63;18.20;;;;;;;-0.18;69.33;99844.41;5087993;28;20359;-67
2022/01/27 00:29:04;;;;;;;28.48;18.42;;;;;;;0.24;69.23;99926.75;5088835;28;20054;-66
2022/01/27 00:31:39;;;;;;;27.20;16.70;;;;;;;0.73;69.40;99976.91;5088713;28;20104;-67
2022/01/27 00:34:11;;;;;;;30.17;17.20;;;;;;;1.51;69.35;100094.78;5087896;28;20204;-68
2022/01/27 00:36:44;;;;;;;24.50;16.52;;;;;;;1.49;69.38;100108.72;5087739;28;20055;-67
2022/01/27 00:39:16;;;;;;;26.98;17.65;;;;;;;1.46;69.39;100124.44;5089078;28;20120;-68
2022/01/27 00:41:48;;;;;;;29.17;17.30;;;;;;;0.69;69.55;99998.69;5087951;28;20055;-64
2022/01/27 00:44:23;;;;;;;27.60;16.23;;;;;;;0.25;69.36;99933.69;5089012;28;20048;-65
2022/01/27 00:46:56;;;;;;;31.97;17.27;;;;;;;1.45;69.68;100118.34;5087895;28;20100;-65
2022/01/27 00:49:29;;;;;;;27.55;16.00;;;;;;;1.46;69.59;100122.69;5087587;28;20059;-65
2022/01/27 00:52:03;;;;;;;25.55;17.00;;;;;;;1.47;69.49;100132.25;5087431;28;20037;-66
2022/01/27 00:54:35;;;;;;;27.48;17.05;;;;;;;1.44;69.39;100137.50;5087370;28;20047;-66
2022/01/27 00:57:13;;;;;;;29.65;17.85;;;;;;;0.55;69.41;99995.28;5087995;28;20044;-65
2022/01/27 00:59:52;;;;;;;29.05;16.50;;;;;;;1.43;69.56;100121.84;5087868;28;20130;-65
2022/01/27 01:02:37;;;;;;;26.63;17.65;;;;;;;1.40;69.39;100114.03;5088092;28;20048;-65
2022/01/27 01:05:25;;;;;;;27.33;15.60;;;;;;;1.41;69.43;100114.00;5087957;28;20044;-65
2022/01/27 01:08:09;;;;;;;26.40;18.35;;;;;;;1.02;69.44;100044.59;5087873;28;20040;-65
2022/01/27 01:14:18;;;;;;;28.70;17.42;;;;;;;1.36;69.53;100117.53;5057267;28;20317;-65
2022/01/27 01:16:52;;;;;;;26.08;16.63;;;;;;;0.48;69.45;99976.19;5087489;28;20078;-65
2022/01/27 01:19:37;;;;;;;;;;;;;;;1.40;69.46;100106.19;5088079;28;20115;-65
2022/01/27 01:30:50;;;;;;;30.10;18.85;;;;;;;1.41;69.67;100097.47;5087375;28;20044;-65
2022/01/27 01:33:27;;;;;;;29.67;15.82;;;;;;;1.42;69.65;100097.47;5087113;28;20102;-65
2022/01/27 01:36:12;;;;;;;33.08;19.02;;;;;;;1.40;69.83;100087.91;5087200;28;20040;-65
2022/01/27 01:38:45;;;;;;;26.17;16.30;;;;;;;1.42;69.72;100100.06;5087590;28;20086;-66
2022/01/27 01:41:17;;;;;;;30.20;19.30;;;;;;;1.43;69.63;100091.34;5087455;28;20243;-65
2022/01/27 01:43:49;;;;;;;31.23;19.77;;;;;;;1.40;69.82;100069.63;5086241;28;20309;-65
2022/01/27 01:46:22;;;;;;;26.80;18.10;;;;;;;1.41;69.83;100069.59;5087141;28;20044;-65
2022/01/27 01:48:54;;;;;;;26.75;16.30;;;;;;;1.44;69.63;100074.81;5087463;28;20102;-65
2022/01/27 01:51:35;;;;;;;27.27;18.20;;;;;;;0.97;69.79;99998.53;5087311;28;20060;-64
2022/01/27 01:54:09;;;;;;;29.60;18.02;;;;;;;0.26;69.95;99901.53;5087517;28;20253;-66
2022/01/27 01:56:44;;;;;;;33.67;19.50;;;;;;;1.42;69.98;100078.31;5086933;28;20036;-65
2022/01/27 01:59:18;;;;;;;26.70;17.70;;;;;;;1.41;69.92;100063.50;5087001;28;20311;-66
2022/01/27 02:01:51;;;;;;;23.77;15.52;;;;;;;1.43;69.90;100072.19;5086996;28;20079;-65
2022/01/27 02:04:23;;;;;;;26.75;17.08;;;;;;;1.43;69.94;100059.16;5086204;28;20059;-66
2022/01/27 02:07:02;;;;;;;30.20;18.45;;;;;;;1.13;70.14;100018.44;5086891;28;20099;-66
2022/01/27 02:09:49;;;;;;;35.83;18.52;;;;;;;1.47;69.87;100073.91;5085638;28;20089;-66
2022/01/27 02:18:03;;;;;;;28.70;17.30;;;;;;;1.44;69.93;100055.66;5055214;28;20056;-66
2022/01/27 02:20:38;;;;;;;31.73;18.77;;;;;;;1.48;69.64;100070.44;5085862;28;20292;-66
2022/01/27 02:23:11;;;;;;;35.50;19.55;;;;;;;1.18;69.67;99987.94;5085592;28;20040;-66
2022/01/27 02:25:44;;;;;;;30.60;19.13;;;;;;;1.50;69.68;100030.34;5086327;28;20219;-66
2022/01/27 02:28:16;;;;;;;28.65;18.52;;;;;;;1.49;69.79;100038.19;5086511;28;20344;-66
2022/01/27 02:30:48;;;;;;;32.55;18.08;;;;;;;0.59;69.87;99888.31;5085451;28;20077;-66
2022/01/27 02:33:30;;;;;;;26.02;17.13;;;;;;;1.47;69.80;100037.34;5086084;28;20258;-66
2022/01/27 02:36:05;;;;;;;31.25;19.45;;;;;;;1.49;69.60;100035.59;5086235;28;20044;-66
2022/01/27 02:38:38;;;;;;;29.10;17.77;;;;;;;1.47;69.86;100045.19;5085944;28;20044;-66
2022/01/27 02:41:12;;;;;;;33.25;18.85;;;;;;;1.19;70.02;99989.69;5052266;28;20090;-65
2022/01/27 02:43:44;;;;;;;33.53;18.67;;;;;;;1.48;69.86;100039.94;5085930;28;20070;-66
2022/01/27 02:46:21;;;;;;;34.65;17.73;;;;;;;1.19;69.90;100021.00;5085831;28;20051;-66
2022/01/27 02:48:53;;;;;;;31.05;18.85;;;;;;;0.17;69.82;99831.19;5085961;28;20288;-66
2022/01/27 02:51:27;;;;;;;29.77;19.70;;;;;;;1.45;70.33;100034.75;5085778;28;20086;-66
2022/01/27 02:54:00;;;;;;;27.38;16.95;;;;;;;1.44;70.08;100034.75;5085002;28;20052;-66
2022/01/27 02:56:33;;;;;;;36.42;19.58;;;;;;;1.09;70.06;99977.56;5086056;28;20195;-65
2022/01/27 02:59:05;;;;;;;35.65;18.15;;;;;;;1.27;70.07;100003.53;5084881;28;20105;-65
2022/01/27 03:01:38;;;;;;;33.13;18.92;;;;;;;1.05;69.64;99976.72;5085679;28;20051;-66
2022/01/27 03:04:10;;;;;;;29.42;17.90;;;;;;;0.27;69.75;99838.94;5085133;28;20131;-65
2022/01/27 03:06:46;;;;;;;29.75;20.23;;;;;;;1.39;70.03;100026.97;5085077;28;20285;-66
2022/01/27 03:09:18;;;;;;;30.73;17.40;;;;;;;0.19;70.06;99811.19;5085824;28;20086;-66
2022/01/27 03:11:52;;;;;;;40.67;22.35;;;;;;;1.38;69.91;100017.38;5085675;28;20062;-66
2022/01/27 03:14:27;;;;;;;31.63;17.50;;;;;;;1.04;69.89;99968.91;5085800;28;20178;-66
2022/01/27 03:17:00;;;;;;;29.35;17.00;;;;;;;1.07;70.11;99979.31;5085665;28;20251;-66
2022/01/27 03:19:34;;;;;;;31.40;19.27;;;;;;;1.02;70.22;99975.88;5085456;28;20082;-66
2022/01/27 03:22:09;;;;;;;30.02;19.50;;;;;;;1.35;70.33;100020.03;5085651;28;20040;-66
2022/01/27 03:24:41;;;;;;;30.65;19.85;;;;;;;1.08;69.92;99996.72;5085398;28;20094;-66
2022/01/27 03:27:18;;;;;;;27.70;17.70;;;;;;;1.04;70.27;99972.38;5085633;28;20208;-66
2022/01/27 03:29:47;;;;;;;33.00;17.73;;;;;;;0.18;70.11;99832.94;5084642;28;20265;-66
2022/01/27 03:32:18;;;;;;;28.10;19.33;;;;;;;1.37;70.12;100014.78;5084336;28;20056;-66
2022/01/27 03:34:48;;;;;;;26.48;18.02;;;;;;;1.37;70.00;100028.72;5085807;28;20048;-66
2022/01/27 03:37:19;;;;;;;32.53;19.33;;;;;;;1.40;69.74;100033.03;5084649;28;20104;-66
2022/01/27 03:39:48;;;;;;;32.20;18.75;;;;;;;1.38;69.89;100027.84;5085467;28;20035;-66
2022/01/27 03:42:18;;;;;;;27.02;16.95;;;;;;;1.42;69.76;100016.50;5085648;28;20036;-65
2022/01/27 03:44:48;;;;;;;30.95;19.35;;;;;;;-1.98;69.70;99479.06;5085135;28;20048;-65
2022/01/27 03:47:19;;;;;;;29.65;19.05;;;;;;;1.38;70.03;100030.44;5085123;28;20094;-66
2022/01/27 03:49:49;;;;;;;29.52;17.58;;;;;;;1.38;69.98;100029.56;5085409;28;20028;-66
2022/01/27 03:52:20;;;;;;;28.77;19.08;;;;;;;1.38;69.79;100032.19;5085455;28;20036;-66
2022/01/27 03:54:49;;;;;;;27.58;17.55;;;;;;;1.09;69.90;99988.00;5088050;28;20039;-66
2022/01/27 03:57:19;;;;;;;29.02;16.70;;;;;;;0.22;69.76;99869.41;5089320;28;20040;-67
2022/01/27 03:59:49;;;;;;;31.20;17.83;;;;;;;1.39;69.76;100037.41;5089356;28;20293;-66
2022/01/27 04:02:20;;;;;;;29.02;17.58;;;;;;;0.18;69.61;99872.91;5088151;28;20075;-66
2022/01/27 04:04:50;;;;;;;24.10;15.63;;;;;;;0.43;69.51;99927.53;5089017;28;20036;-66
2022/01/27 04:07:21;;;;;;;28.45;17.38;;;;;;;1.38;69.59;100038.28;5088300;28;20044;-65
2022/01/27 04:09:50;;;;;;;28.23;16.50;;;;;;;1.38;69.52;100033.06;5088720;28;20025;-66
2022/01/27 04:12:20;;;;;;;27.08;15.70;;;;;;;1.37;69.70;100031.31;5088968;28;20297;-66
2022/01/27 04:14:51;;;;;;;25.98;15.75;;;;;;;1.05;69.59;100008.03;5089092;28;20048;-66
2022/01/27 04:17:21;;;;;;;28.23;16.70;;;;;;;1.20;69.48;100001.84;5088668;28;20086;-66
2022/01/27 04:19:51;;;;;;;24.38;16.40;;;;;;;1.36;69.46;100024.38;5088935;28;20287;-66
2022/01/27 04:22:23;;;;;;;27.27;17.92;;;;;;;1.40;69.47;100023.47;5088724;28;20040;-66
2022/01/27 04:24:52;;;;;;;30.30;18.27;;;;;;;1.43;69.41;100025.19;5089221;28;20044;-66
2022/01/27 04:27:23;;;;;;;26.23;15.15;;;;;;;1.39;69.22;100019.13;5088649;28;20052;-66
2022/01/27 04:29:52;;;;;;;27.25;16.67;;;;;;;1.37;69.21;100020.88;5088550;28;20045;-66
2022/01/27 04:32:28;;;;;;;28.30;15.82;;;;;;;1.39;69.24;100024.34;5088553;28;20049;-66
2022/01/27 04:35:04;;;;;;;25.88;15.35;;;;;;;1.42;68.95;100024.31;5088430;28;20037;-66
2022/01/27 04:37:42;;;;;;;30.05;17.25;;;;;;;1.00;68.86;99977.63;5088642;28;20048;-66
2022/01/27 04:40:16;;;;;;;27.65;16.58;;;;;;;1.36;69.09;100016.53;5088433;28;20062;-66
2022/01/27 04:42:56;;;;;;;24.90;16.23;;;;;;;1.33;68.98;100013.94;5088212;28;20036;-66
2022/01/27 04:45:34;;;;;;;25.00;15.63;;;;;;;1.33;69.10;100010.47;5088076;28;20311;-66
2022/01/27 04:48:11;;;;;;;25.88;15.90;;;;;;;1.36;68.90;100005.22;5088047;28;20334;-66
2022/01/27 04:50:44;;;;;;;29.83;15.85;;;;;;;1.28;69.10;100004.41;5088028;28;20048;-66
2022/01/27 04:53:23;;;;;;;29.58;18.20;;;;;;;1.30;68.97;100003.53;5087155;28;20051;-66
2022/01/27 04:55:57;;;;;;;25.08;16.85;;;;;;;1.29;68.96;100000.91;5087821;28;20051;-66
2022/01/27 04:58:32;;;;;;;28.05;17.63;;;;;;;-0.16;69.08;99762.75;5087990;28;20296;-66
2022/01/27 05:01:05;;;;;;;26.77;15.52;;;;;;;1.29;69.31;100006.16;5088145;28;20086;-66
2022/01/27 05:03:42;;;;;;;31.33;18.27;;;;;;;1.27;69.31;100011.38;5087858;28;20079;-66
2022/01/27 05:06:14;;;;;;;29.90;18.10;;;;;;;0.99;69.21;99962.84;5087652;28;20082;-66
2022/01/27 05:08:48;;;;;;;25.98;15.80;;;;;;;1.27;68.95;99985.25;5087818;28;20045;-66
2022/01/27 05:11:25;;;;;;;32.00;19.00;;;;;;;1.17;68.94;99992.31;5087765;28;20094;-66
2022/01/27 05:14:03;;;;;;;29.90;17.15;;;;;;;1.18;68.93;99995.78;5087962;28;20097;-66
2022/01/27 05:16:36;;;;;;;24.48;15.88;;;;;;;1.19;69.18;99992.28;5087500;28;20044;-66
2022/01/27 05:19:08;;;;;;;28.27;18.40;;;;;;;1.13;69.21;99985.38;5087832;28;20086;-66
2022/01/27 05:21:40;;;;;;;25.05;17.05;;;;;;;1.13;69.07;99987.09;5087527;28;20247;-66
2022/01/27 05:24:14;;;;;;;27.70;18.38;;;;;;;1.16;68.93;99989.69;5087462;28;20251;-66
2022/01/27 05:26:47;;;;;;;28.30;17.67;;;;;;;0.88;69.00;99942.91;5087655;28;20115;-66
2022/01/27 05:29:19;;;;;;;25.75;15.55;;;;;;;0.57;69.07;99891.78;5086572;28;20272;-66
2022/01/27 05:31:51;;;;;;;29.05;18.13;;;;;;;1.13;69.10;99974.91;5087069;28;20056;-66
2022/01/27 05:34:24;;;;;;;26.10;16.90;;;;;;;0.86;69.02;99956.84;5087430;28;20056;-66
2022/01/27 05:36:56;;;;;;;28.35;17.40;;;;;;;1.14;68.95;99979.25;5087341;28;20048;-66
2022/01/27 05:39:30;;;;;;;30.10;18.73;;;;;;;0.86;69.15;99922.91;5086585;28;20242;-66
2022/01/27 05:42:02;;;;;;;25.70;14.98;;;;;;;1.20;68.99;99967.91;5087075;28;20086;-66
2022/01/27 05:44:35;;;;;;;27.05;16.77;;;;;;;-0.14;68.78;99745.38;5086231;28;20300;-66
2022/01/27 05:47:07;;;;;;;25.40;15.68;;;;;;;1.17;69.49;99979.25;5086232;28;20058;-66
2022/01/27 05:49:40;;;;;;;31.45;17.15;;;;;;;1.15;69.03;99991.44;5086345;28;20197;-66
2022/01/27 05:52:12;;;;;;;34.50;19.42;;;;;;;1.14;69.11;99996.66;5087108;28;20047;-66
2022/01/27 05:54:45;;;;;;;33.15;19.33;;;;;;;1.11;69.33;99987.13;5087061;28;20086;-67
2022/01/27 05:57:14;;;;;;;31.85;19.67;;;;;;;1.12;69.30;99994.06;5086886;28;20307;-67
2022/01/27 05:59:44;;;;;;;31.38;18.92;;;;;;;0.87;69.18;99953.34;5086837;28;20063;-66
2022/01/27 06:02:15;;;;;;;30.67;19.75;;;;;;;1.13;69.27;99995.81;5086990;28;20253;-65
2022/01/27 06:04:45;;;;;;;33.58;19.83;;;;;;;1.16;69.29;99997.53;5086762;28;20040;-66
2022/01/27 06:07:15;;;;;;;35.88;19.63;;;;;;;0.83;69.13;99939.47;5086709;28;20052;-67
2022/01/27 06:09:46;;;;;;;33.08;19.88;;;;;;;1.10;69.38;99992.34;5086683;28;20028;-66
2022/01/27 06:12:15;;;;;;;28.90;18.05;;;;;;;0.81;69.12;99916.84;5086284;28;20047;-67
2022/01/27 06:14:45;;;;;;;31.85;20.77;;;;;;;1.18;69.23;99967.06;5086511;28;20096;-66
2022/01/27 06:17:15;;;;;;;32.20;18.58;;;;;;;-0.82;69.34;99647.66;5085362;28;20036;-67
2022/01/27 06:19:46;;;;;;;32.50;19.90;;;;;;;1.11;69.46;99979.28;5086418;28;20211;-66
2022/01/27 06:22:16;;;;;;;34.45;20.23;;;;;;;1.13;69.33;99982.75;5086160;28;20047;-67
2022/01/27 06:24:47;;;;;;;30.90;17.95;;;;;;;0.88;69.16;99948.13;5086420;28;20032;-67
2022/01/27 06:27:16;;;;;;;33.63;21.00;;;;;;;-0.15;68.94;99790.53;5086330;28;20056;-67
2022/01/27 06:29:46;;;;;;;33.47;19.02;;;;;;;0.89;69.13;99955.06;5086145;28;20062;-67
2022/01/27 06:32:16;;;;;;;33.65;20.13;;;;;;;1.20;68.98;99994.88;5085243;28;20111;-67
2022/01/27 06:34:47;;;;;;;32.58;20.38;;;;;;;1.20;69.14;99986.19;5086058;28;20036;-67
2022/01/27 06:37:16;;;;;;;33.95;19.13;;;;;;;0.47;69.23;99854.47;5085948;28;20037;-67
2022/01/27 06:39:48;;;;;;;30.60;19.85;;;;;;;1.19;69.05;99980.09;5085996;28;20036;-66
2022/01/27 06:42:17;;;;;;;33.78;20.00;;;;;;;1.19;69.13;99993.16;5086103;28;20048;-67
2022/01/27 06:44:47;;;;;;;35.00;21.83;;;;;;;1.16;69.27;99969.69;5085735;28;20170;-67
2022/01/27 06:47:17;;;;;;;36.58;21.45;;;;;;;1.14;69.32;99968.81;5085917;28;20044;-67
2022/01/27 06:49:47;;;;;;;33.05;18.98;;;;;;;1.16;69.16;99943.56;5085582;28;20082;-67
2022/01/27 06:52:19;;;;;;;32.58;18.80;;;;;;;1.17;69.03;99957.50;5085781;28;20119;-67
2022/01/27 06:54:50;;;;;;;31.98;18.98;;;;;;;1.17;68.97;99954.88;5085513;28;20039;-67
2022/01/27 06:57:17;;;;;;;33.80;22.85;;;;;;;1.16;69.39;99934.88;5085867;28;20067;-67
2022/01/27 06:59:48;;;;;;;33.85;20.33;;;;;;;1.16;69.20;99940.09;5085838;28;20040;-67
2022/01/27 07:02:18;;;;;;;34.42;19.55;;;;;;;1.19;69.05;99937.47;5085752;28;20036;-66
2022/01/27 07:04:49;;;;;;;30.75;19.95;;;;;;;1.19;69.23;99933.09;5085505;28;20300;-67
2022/01/27 07:07:18;;;;;;;33.40;19.25;;;;;;;-1.42;68.95;99477.97;5085472;28;20300;-67
2022/01/27 07:09:49;;;;;;;32.08;19.15;;;;;;;1.20;69.07;99923.53;5085294;28;20196;-67
2022/01/27 07:12:18;;;;;;;35.63;20.83;;;;;;;1.21;69.05;99926.13;5085629;28;20040;-67
2022/01/27 07:14:48;;;;;;;34.60;18.70;;;;;;;1.19;69.05;99922.66;5086203;28;20106;-67
2022/01/27 07:17:20;;;;;;;37.83;21.05;;;;;;;1.20;69.01;99929.59;5085606;28;20095;-68
2022/01/27 07:19:49;;;;;;;32.97;19.42;;;;;;;1.24;69.04;99917.41;5085516;28;20040;-67
2022/01/27 07:22:19;;;;;;;33.45;21.08;;;;;;;1.26;68.84;99902.59;5084822;28;20041;-67
2022/01/27 07:24:50;;;;;;;34.42;20.83;;;;;;;1.28;69.01;99900.81;5084442;28;20048;-67
2022/01/27 07:27:20;;;;;;;33.50;19.42;;;;;;;1.35;68.77;99891.19;5084216;28;20040;-67
2022/01/27 07:29:49;;;;;;;35.95;20.70;;;;;;;1.35;68.62;99899.03;5085508;28;20095;-67
2022/01/27 07:32:19;;;;;;;41.83;23.65;;;;;;;1.34;68.73;99900.75;5085014;28;20052;-67
2022/01/27 07:34:50;;;;;;;41.13;24.08;;;;;;;1.36;68.37;99899.00;5085980;28;20034;-68
2022/01/27 07:37:19;;;;;;;32.95;20.48;;;;;;;-0.43;68.28;99580.63;5085156;28;20068;-67
2022/01/27 07:39:51;;;;;;;33.67;20.52;;;;;;;1.44;67.95;99886.75;5084547;28;20043;-67
2022/01/27 07:42:20;;;;;;;34.70;20.92;;;;;;;1.50;67.80;99897.13;5084382;28;20292;-67
2022/01/27 07:44:50;;;;;;;38.03;21.45;;;;;;;1.55;67.66;99894.47;5085522;28;20312;-68
2022/01/27 07:47:20;;;;;;;32.88;21.55;;;;;;;1.62;67.55;99884.84;5085107;28;20204;-67
2022/01/27 07:49:50;;;;;;;37.67;22.67;;;;;;;1.65;67.33;99884.81;5084343;28;20060;-67
2022/01/27 07:52:21;;;;;;;33.70;21.50;;;;;;;1.71;67.15;99875.16;5084744;28;20052;-67
2022/01/27 07:54:52;;;;;;;36.13;21.58;;;;;;;1.81;67.13;99863.72;5085312;28;20036;-68
2022/01/27 07:57:20;;;;;;;30.58;18.83;;;;;;;1.92;66.75;99865.34;5085386;28;20083;-67
2022/01/27 07:59:51;;;;;;;31.98;20.10;;;;;;;1.98;66.59;99850.44;5084930;28;20097;-67
2022/01/27 08:02:21;;;;;;;36.05;21.52;;;;;;;2.08;66.05;99845.97;5084496;28;20107;-67
2022/01/27 08:04:51;;;;;;;33.65;20.00;;;;;;;2.15;65.86;99843.25;5085445;28;20028;-67
2022/01/27 08:07:21;;;;;;;30.30;18.20;;;;;;;2.23;65.13;99837.91;5085084;28;20040;-67
2022/01/27 08:09:53;;;;;;;25.83;17.83;;;;;;;2.34;65.26;99845.63;5084855;28;20055;-67
2022/01/27 08:12:21;;;;;;;31.45;19.20;;;;;;;2.07;65.03;99773.66;5085102;28;20044;-67
2022/01/27 08:14:52;;;;;;;32.92;19.55;;;;;;;2.50;64.73;99827.06;5085285;28;20048;-67
2022/01/27 08:17:22;;;;;;;30.98;18.80;;;;;;;2.57;64.41;99827.84;5084562;28;20259;-67
2022/01/27 08:19:52;;;;;;;33.63;19.50;;;;;;;2.66;64.33;99813.75;5085064;28;20040;-66
2022/01/27 08:22:22;;;;;;;28.88;18.63;;;;;;;2.73;64.20;99803.16;5084869;28;20040;-67
2022/01/27 08:24:53;;;;;;;30.95;20.40;;;;;;;2.81;63.81;99797.78;5085131;28;20078;-66
2022/01/27 08:27:26;;;;;;;27.25;16.75;;;;;;;2.86;63.77;99814.28;5084922;28;20063;-67
2022/01/27 08:30:02;;;;;;;34.97;21.25;;;;;;;2.96;63.50;99796.66;5085007;28;20074;-67
2022/01/27 08:32:46;;;;;;;32.40;19.55;;;;;;;2.75;62.93;99758.63;5084361;28;20060;-67
2022/01/27 08:35:20;;;;;;;32.95;19.98;;;;;;;2.82;62.04;99752.41;5084229;28;20040;-68
2022/01/27 08:37:53;;;;;;;35.55;20.38;;;;;;;2.42;62.03;99692.03;5083961;28;20048;-66
2022/01/27 08:40:27;;;;;;;31.38;18.58;;;;;;;3.36;62.33;99807.28;5086350;28;20041;-67
2022/01/27 08:43:00;;;;;;;27.25;17.85;;;;;;;3.48;61.54;99812.28;5088542;28;20040;-67
2022/01/27 08:45:32;;;;;;;27.55;17.15;;;;;;;3.35;60.34;99759.25;5088468;28;20082;-68
2022/01/27 08:48:06;;;;;;;31.23;18.80;;;;;;;3.41;61.24;99746.03;5088042;28;20086;-66
2022/01/27 08:50:38;;;;;;;29.23;16.60;;;;;;;3.53;59.51;99742.31;5088105;28;20040;-67
2022/01/27 08:53:10;;;;;;;26.70;16.83;;;;;;;3.94;60.18;99766.78;5087611;28;20048;-67
2022/01/27 08:55:45;;;;;;;28.20;17.85;;;;;;;4.03;58.56;99770.06;5088272;28;20047;-67
2022/01/27 08:58:17;;;;;;;25.73;16.42;;;;;;;3.81;58.26;99704.13;5087888;28;20048;-67
2022/01/27 09:00:49;;;;;;;32.75;19.90;;;;;;;4.37;58.76;99757.09;5087158;28;20045;-67
2022/01/27 09:03:21;;;;;;;29.08;15.27;;;;;;;4.53;57.06;99777.72;5087908;28;20059;-67
2022/01/27 09:05:53;;;;;;;28.83;17.30;;;;;;;4.70;57.82;99767.66;5088156;28;20091;-67
2022/01/27 09:08:27;;;;;;;25.23;14.98;;;;;;;4.12;57.40;99658.84;5088111;28;20235;-66
2022/01/27 09:11:01;;;;;;;27.25;17.23;;;;;;;5.00;55.94;99759.03;5088034;28;20288;-67
2022/01/27 09:13:33;;;;;;;28.30;17.20;;;;;;;4.31;57.55;99672.41;5087676;28;20036;-66
2022/01/27 09:16:07;;;;;;;28.42;16.88;;;;;;;4.33;55.96;99618.13;5087443;28;20052;-66
2022/01/27 09:18:39;;;;;;;23.10;15.00;;;;;;;5.21;56.59;99757.59;5087055;28;20040;-67
2022/01/27 09:21:18;;;;;;;23.80;16.15;;;;;;;3.90;54.37;99522.13;5088010;28;20291;-67
2022/01/27 09:23:52;;;;;;;24.65;16.65;;;;;;;5.41;54.77;99743.91;5088371;28;20048;-67
2022/01/27 09:26:49;;;;;;;22.00;14.98;;;;;;;5.53;55.03;99748.84;5070639;28;20048;-67
2022/01/27 09:29:22;;;;;;;24.92;15.80;;;;;;;5.73;54.96;99730.72;5070377;28;20044;-67
2022/01/27 09:31:55;;;;;;;21.73;14.90;;;;;;;5.66;54.07;99704.63;5087495;28;20314;-67
2022/01/27 09:34:27;;;;;;;22.98;14.93;;;;;;;6.01;52.97;99727.25;5086588;28;20047;-67
2022/01/27 09:37:02;;;;;;;23.20;14.70;;;;;;;6.08;53.94;99713.00;5087448;28;20045;-67
2022/01/27 09:39:35;;;;;;;20.88;15.40;;;;;;;5.55;52.90;99619.97;5086510;28;20090;-67
2022/01/27 09:42:09;;;;;;;22.33;14.18;;;;;;;6.22;53.24;99742.38;5069650;28;20312;-68
2022/01/27 09:44:44;;;;;;;23.10;15.65;;;;;;;6.30;51.12;99721.94;5087300;28;20041;-66
2022/01/27 09:47:17;;;;;;;;;;;;;;;6.30;49.15;99719.31;5087882;28;20170;-67
2022/01/27 09:49:53;;;;;;;24.60;15.55;;;;;;;6.41;50.47;99711.06;5087260;28;19924;-67
2022/01/27 09:52:24;;;;;;;23.63;14.57;;;;;;;6.43;53.48;99701.34;5086926;28;20173;-67
2022/01/27 09:54:54;;;;;;;19.77;12.35;;;;;;;6.47;51.41;99729.28;5086679;28;20038;-67
2022/01/27 09:57:25;;;;;;;21.13;13.70;;;;;;;6.42;49.78;99704.88;5086611;28;20103;-67
2022/01/27 09:59:54;;;;;;;18.67;12.25;;;;;;;6.51;50.83;99709.84;5086422;28;20246;-66
2022/01/27 10:02:26;;;;;;;20.30;12.95;;;;;;;5.33;50.33;99520.72;5086802;28;20040;-66
2022/01/27 10:04:57;;;;;;;23.42;13.70;;;;;;;6.67;50.19;99703.16;5086511;28;20056;-67
2022/01/27 10:07:28;;;;;;;21.55;13.57;;;;;;;6.83;50.48;99721.09;5086598;28;20056;-67
2022/01/27 10:10:02;;;;;;;21.40;14.25;;;;;;;7.03;50.64;99700.19;5085512;28;20150;-67
2022/01/27 10:12:35;;;;;;;19.88;12.55;;;;;;;7.27;50.48;99685.28;5086054;28;20076;-67
2022/01/27 10:15:11;;;;;;;16.98;11.02;;;;;;;7.38;49.14;99688.41;5086260;28;20250;-67
2022/01/27 10:18:06;;;;;;;18.58;12.02;;;;;;;7.50;46.32;99693.25;5085352;28;20040;-67
2022/01/27 10:20:41;;;;;;;17.35;11.93;;;;;;;7.26;49.19;99631.69;5086477;28;20040;-67
2022/01/27 10:23:17;;;;;;;19.90;12.55;;;;;;;7.57;47.34;99678.03;5085426;28;20094;-67
2022/01/27 10:25:53;;;;;;;14.93;10.45;;;;;;;7.55;47.16;99670.19;5085640;28;20040;-67
2022/01/27 10:28:39;;;;;;;14.80;10.70;;;;;;;7.67;46.20;99680.28;5086365;28;20090;-67
2022/01/27 10:31:19;;;;;;;19.38;12.27;;;;;;;6.97;46.88;99587.97;5085653;28;20082;-67
2022/01/27 10:33:54;;;;;;;16.27;10.88;;;;;;;7.73;46.94;99668.63;5085003;28;20040;-67
2022/01/27 10:36:29;;;;;;;18.90;12.23;;;;;;;7.88;46.02;99694.41;5086371;28;20285;-67
2022/01/27 10:39:05;;;;;;;15.80;9.95;;;;;;;7.74;45.86;99661.56;5086137;28;20090;-67
2022/01/27 10:41:40;;;;;;;13.20;9.45;;;;;;;7.71;45.57;99675.75;5084912;28;20105;-67
2022/01/27 10:44:16;;;;;;;14.88;9.82;;;;;;;7.68;44.90;99646.84;5085619;28;20082;-67
2022/01/27 10:47:03;;;;;;;16.63;10.52;;;;;;;7.88;43.60;99639.00;5086069;28;20058;-67
2022/01/27 10:49:42;;;;;;;16.42;11.35;;;;;;;8.05;46.89;99629.53;5085737;28;20090;-67
2022/01/27 10:52:18;;;;;;;15.80;10.15;;;;;;;8.30;44.60;99619.69;5085565;28;20040;-67
2022/01/27 10:54:56;;;;;;;16.65;11.55;;;;;;;8.42;43.69;99611.25;5084650;28;20090;-67
2022/01/27 10:57:26;;;;;;;17.92;11.85;;;;;;;8.51;46.92;99612.66;5084622;28;20107;-67
2022/01/27 11:00:09;;;;;;;18.27;12.95;;;;;;;8.60;43.58;99617.53;5085569;28;20036;-67
2022/01/27 11:02:50;;;;;;;18.33;11.50;;;;;;;8.67;43.79;99603.16;5085025;28;20094;-66
2022/01/27 11:05:25;;;;;;;15.00;10.90;;;;;;;8.80;45.24;99606.97;5085716;28;20044;-67
2022/01/27 11:07:57;;;;;;;;;;;;;;;8.74;42.35;99601.09;5085000;28;20040;-67
2022/01/27 11:10:30;;;;;;;17.30;12.63;;;;;;;8.68;43.87;99624.22;5085382;28;20034;-66
2022/01/27 11:13:02;;;;;;;17.40;11.45;;;;;;;8.63;46.92;99602.41;5085479;28;20235;-67
2022/01/27 11:15:37;;;;;;;17.08;11.20;;;;;;;8.64;44.32;99598.00;5085368;28;20102;-67
2022/01/27 11:18:10;;;;;;;15.38;10.60;;;;;;;8.40;44.46;99523.31;5084274;28;20040;-67
2022/01/27 11:20:53;;;;;;;19.02;11.27;;;;;;;8.76;42.89;99615.09;5085345;28;20048;-67
2022/01/27 11:26:23;;;;;;;20.52;11.13;;;;;;;8.60;46.08;99597.25;5079407;28;20068;-66
2022/01/27 11:28:58;;;;;;;17.08;10.93;;;;;;;8.56;43.32;99590.41;5084897;28;20348;-67
2022/01/27 11:31:44;;;;;;;18.95;11.60;;;;;;;8.46;42.66;99580.28;5084885;28;20044;-66
2022/01/27 11:34:16;;;;;;;14.10;10.10;;;;;;;8.28;44.88;99540.53;5084890;28;20059;-67
2022/01/27 11:37:09;;;;;;;15.35;11.07;;;;;;;8.46;41.98;99582.94;5084963;28;20243;-67
2022/01/27 11:39:52;;;;;;;15.52;10.43;;;;;;;8.51;41.95;99570.38;5082097;28;20056;-67
2022/01/27 11:43:01;;;;;;;16.33;10.45;;;;;;;8.57;41.59;99555.13;5084987;28;20300;-67
2022/01/27 11:45:37;;;;;;;16.40;10.43;;;;;;;8.59;45.00;99555.91;5084990;28;20067;-67
2022/01/27 11:48:14;;;;;;;16.35;9.57;;;;;;;8.73;44.21;99531.53;5085112;28;20036;-66
2022/01/27 11:50:52;;;;;;;17.55;11.10;;;;;;;8.72;43.23;99523.66;5085108;28;20284;-66
2022/01/27 11:53:36;;;;;;;12.98;8.73;;;;;;;8.76;41.80;99528.75;5084979;28;20040;-67
2022/01/27 11:56:15;;;;;;;15.15;10.18;;;;;;;8.84;43.57;99523.13;5084787;28;20040;-67
2022/01/27 11:58:49;;;;;;;16.63;9.82;;;;;;;8.87;43.56;99509.75;5084104;28;20044;-67
2022/01/27 12:01:23;;;;;;;14.45;9.82;;;;;;;8.89;42.87;99500.84;5084739;28;20243;-67
2022/01/27 12:04:16;;;;;;;14.88;9.52;;;;;;;8.92;41.08;99489.25;5084359;28;20040;-66
2022/01/27 12:07:06;;;;;;;12.90;8.73;;;;;;;7.69;40.61;99276.59;5084715;28;20040;-67
2022/01/27 12:09:40;;;;;;;14.60;10.13;;;;;;;9.05;42.81;99482.47;5084458;28;20112;-67
2022/01/27 12:12:30;;;;;;;13.32;8.75;;;;;;;9.18;40.76;99474.81;5083716;28;20084;-66
2022/01/27 12:15:07;;;;;;;14.02;9.63;;;;;;;9.20;42.31;99463.28;5084682;28;20041;-66
2022/01/27 12:17:40;;;;;;;13.57;8.45;;;;;;;9.22;43.33;99456.13;5088267;28;20041;-67